LDSP/SPU METAR and TAF weather

Enter ICAO airport designator
Station Type Date Time Source
LDSP METAR 2021/07/26 15:30 UTC NOAA

LDSP 261530Z 08004KT 050V140 CAVOK 32/14 Q1015 NOSIG


Station Type Date Time Source
LDSP Decoded METAR 2021/07/26 15:30 UTC NOAA

Split / Resnik, Croatia (LDSP) 43-32N 016-18E 21M
Jul 26, 2021 - 11:30 AM EDT / 2021.07.26 1530 UTC
Wind: from the E (080 degrees) at 5 MPH (4 KT) (direction variable):0
Visibility: greater than 7 mile(s):0
Temperature: 89 F (32 C)
Dew Point: 57 F (14 C)
Relative Humidity: 33%
Pressure (altimeter): 29.97 in. Hg (1015 hPa)
ob: LDSP 261530Z 08004KT 050V140 CAVOK 32/14 Q1015 NOSIG
cycle: 15

Station Type Date Time Source
LDSP TAF 2021/07/26 12:27 UTC NOAA

TAF LDSP 261125Z 2612/2712 11007KT CAVOK TX34/2612Z TN26/2703Z PROB40
TEMPO 2612/2617 18012KT

Example: see airport list